Airfield :
LOGIN :

Register | Disclaimer

   EN    FR    IT 

 










Legend :    VFR   Marginal VFR   IFR   Intensive IFR   Very Intensive IFR
Visi :
Ceiling :
>= 8 km
>= 3000ft
5 to 8 km
1000 to 3000 ft
1500m to 5 km
500 to 1000 ft
800 to 1500m
200 to 500 ft
< 800m
< 200 ft
Symbols :   Thunderstorms  Fog  Heavy snow  Heavy precipitations  Wind > 20 kt
SIGMETs :     Misc.  Thunderstorms  Icing  Turbulence  Mountain Waves  Volcanic Ashes






- Airport Elevation : 526 ft
- IATA code : LTN


EGGW - London Luton

CURRENT METAR :
  • 160950Z AUTO 02005KT 340V050 9999 SCT016 BKN027 06/02 Q1032

EXPIRED METARs :
  • 160920Z AUTO 01004KT 300V070 9999 SCT008 BKN011 05/05 Q1032
  • 160850Z AUTO 02004KT 350V050 9999 BKN005 04/04 Q1032
  • 160820Z 03005KT 010V070 9000 OVC002 03/03 Q1032
  • 160750Z AUTO 02004KT 320V070 3000 BR VV/// 03/02 Q1031
  • 160720Z AUTO 04004KT 010V090 0350 R07/0450 FG VV/// 02/02 Q1031

TAF AMD TAF EGGW
Valid from the 16 at 09:00 until the 17 at 06:00 UTC


160903Z 1609/1706 03004KT 9999 BKN005
BECMG 1609/1610 FEW015
PROB30
TEMPO 1702/1706 7000
ATIS : +44 1582 395 204



MET'MAP, your aeronautical weather chart ! - Copyright ORBIFLY December 2007 - Disclaimer

ORBIFLY MET'MAP TEAM :

Programming & Development : Alexandra Zaïnal
Concept & original design : Baudouin d'Aumeries
Assistance for programming : Marc-Olivier Méhu
Technical & hardware support : Manuel Goepfert

Contact : metmap@orbifly.com




SOURCES & CREDITS :

   NOAA